Time;durP1;ratioP1;P1;durP2;ratioP2;P2;SDS_P1;SDS_P2;PMS_P1;PMS_P2;Temp;Humidity;BMP_temperature;BMP_pressure;BME280_temperature;BME280_humidity;BME280_pressure;Samples;Min_cycle;Max_cycle;Signal;HPM_P1;HPM_P2
2021/03/12 00:00:40;;;;;;;19.80;9.82;;;23.00;43.90;;;;;;5074127;28;20050;-42
2021/03/12 00:03:16;;;;;;;17.65;9.35;;;23.00;43.90;;;;;;5076177;28;20403;-43
2021/03/12 00:05:46;;;;;;;19.20;8.85;;;22.90;43.80;;;;;;5074349;28;20044;-42
2021/03/12 00:08:14;;;;;;;20.38;8.98;;;22.90;43.80;;;;;;5072429;28;20056;-45
2021/03/12 00:10:42;;;;;;;24.40;9.68;;;22.90;43.80;;;;;;5074000;28;20507;-43
2021/03/12 00:13:09;;;;;;;18.48;8.90;;;22.90;43.80;;;;;;5073731;28;20048;-46
2021/03/12 00:15:37;;;;;;;24.58;9.00;;;22.90;43.80;;;;;;5073813;28;20048;-42
2021/03/12 00:18:04;;;;;;;20.67;9.75;;;23.00;43.90;;;;;;5072109;28;20567;-46
2021/03/12 00:20:35;;;;;;;18.77;9.00;;;22.90;43.80;;;;;;5072320;28;20048;-43
2021/03/12 00:23:04;;;;;;;21.77;9.60;;;22.90;43.90;;;;;;5073028;28;20094;-42
2021/03/12 00:25:41;;;;;;;23.02;9.82;;;22.90;43.90;;;;;;5074245;28;20048;-43
2021/03/12 00:28:09;;;;;;;17.30;9.25;;;22.90;43.90;;;;;;5072801;28;20099;-42
2021/03/12 00:30:37;;;;;;;19.10;9.35;;;22.90;43.90;;;;;;5072411;28;20048;-43
2021/03/12 00:33:05;;;;;;;21.17;9.73;;;22.90;43.90;;;;;;5074071;28;20044;-43
2021/03/12 00:35:37;;;;;;;21.00;9.65;;;22.90;43.90;;;;;;5074203;28;20036;-43
2021/03/12 00:38:04;;;;;;;23.85;9.88;;;22.90;43.90;;;;;;5071817;28;20418;-43
2021/03/12 00:40:44;;;;;;;19.02;8.88;;;22.90;43.90;;;;;;5072772;28;20056;-42
2021/03/12 00:43:12;;;;;;;23.88;10.07;;;22.90;43.90;;;;;;5057488;28;20485;-44
2021/03/12 00:45:41;;;;;;;18.40;8.95;;;22.90;43.90;;;;;;5074820;28;20048;-43
2021/03/12 00:48:08;;;;;;;18.30;8.43;;;22.90;43.90;;;;;;5072162;28;20384;-43
2021/03/12 00:50:37;;;;;;;18.88;9.00;;;22.90;44.00;;;;;;5072195;28;20048;-43
2021/03/12 00:53:06;;;;;;;17.00;8.88;;;22.90;43.90;;;;;;5074161;28;20044;-42
2021/03/12 00:55:33;;;;;;;20.45;9.20;;;22.90;44.00;;;;;;5072149;28;20123;-45
2021/03/12 00:58:00;;;;;;;17.20;8.98;;;22.90;44.00;;;;;;5073434;28;20037;-44
2021/03/12 01:00:29;;;;;;;18.08;9.27;;;22.90;44.00;;;;;;5072988;28;20072;-43
2021/03/12 01:02:56;;;;;;;20.90;9.43;;;22.90;44.00;;;;;;5072250;28;20036;-42
2021/03/12 01:05:23;;;;;;;17.85;9.27;;;22.90;44.00;;;;;;5073463;28;20044;-42
2021/03/12 01:07:50;;;;;;;19.55;9.02;;;22.90;44.00;;;;;;5073372;28;20040;-42
2021/03/12 01:10:18;;;;;;;18.85;8.65;;;22.90;44.00;;;;;;5071725;28;20040;-43
2021/03/12 01:12:45;;;;;;;17.23;8.95;;;22.90;44.00;;;;;;5073522;28;20051;-45
2021/03/12 01:15:15;;;;;;;19.85;9.23;;;22.90;44.10;;;;;;5073915;28;20048;-42
2021/03/12 01:17:43;;;;;;;18.92;8.95;;;22.90;44.30;;;;;;5071375;28;20076;-42
2021/03/12 01:20:15;;;;;;;18.05;9.15;;;22.90;44.10;;;;;;5071927;28;20059;-43
2021/03/12 01:22:42;;;;;;;14.80;8.32;;;22.90;44.10;;;;;;5074401;28;20056;-42
2021/03/12 01:25:12;;;;;;;17.83;8.75;;;22.90;44.10;;;;;;5072122;28;20044;-46
2021/03/12 01:27:39;;;;;;;17.05;8.75;;;22.90;44.10;;;;;;5072660;28;20522;-42
2021/03/12 01:30:14;;;;;;;21.05;9.07;;;22.90;44.10;;;;;;5071586;28;20044;-42
2021/03/12 01:32:41;;;;;;;15.60;8.50;;;22.80;44.00;;;;;;5070634;28;20055;-42
2021/03/12 01:35:09;;;;;;;20.35;9.65;;;22.90;44.20;;;;;;5071599;28;20047;-42
2021/03/12 01:37:36;;;;;;;17.70;9.05;;;22.80;44.00;;;;;;5071346;28;20084;-42
2021/03/12 01:40:06;;;;;;;17.00;8.43;;;22.80;44.00;;;;;;5071728;28;20045;-42
2021/03/12 01:42:49;;;;;;;16.13;8.77;;;22.80;44.00;;;;;;5071880;28;20044;-42
2021/03/12 01:45:22;;;;;;;19.33;9.30;;;22.80;44.00;;;;;;5055648;28;20052;-42
2021/03/12 01:47:50;;;;;;;18.65;9.02;;;22.80;44.10;;;;;;5072979;28;20079;-43
2021/03/12 01:50:19;;;;;;;17.40;8.57;;;22.80;44.00;;;;;;5072579;28;20430;-43
2021/03/12 01:52:46;;;;;;;19.02;9.10;;;22.90;44.20;;;;;;5071402;28;20047;-43
2021/03/12 01:55:25;;;;;;;18.60;8.98;;;22.90;44.20;;;;;;5073621;28;20539;-42
2021/03/12 01:57:52;;;;;;;21.25;9.23;;;22.80;44.10;;;;;;5071335;28;20048;-42
2021/03/12 02:00:19;;;;;;;15.68;8.82;;;22.80;44.10;;;;;;5070516;28;20051;-44
2021/03/12 02:02:46;;;;;;;19.27;9.30;;;22.80;44.10;;;;;;5071063;28;20048;-42
2021/03/12 02:05:14;;;;;;;16.08;8.88;;;22.80;44.10;;;;;;5072571;28;20048;-43
2021/03/12 02:07:41;;;;;;;18.20;8.88;;;22.80;44.10;;;;;;5071844;28;20071;-42
2021/03/12 02:10:12;;;;;;;19.73;9.40;;;22.80;44.10;;;;;;5072596;28;20051;-42
2021/03/12 02:12:49;;;;;;;17.88;8.88;;;22.80;44.10;;;;;;5070919;28;20044;-42
2021/03/12 02:15:27;;;;;;;18.65;8.35;;;22.80;44.10;;;;;;5072153;28;20089;-43
2021/03/12 02:18:18;;;;;;;17.02;8.60;;;22.80;44.10;;;;;;5072224;28;20067;-43
2021/03/12 02:20:48;;;;;;;16.08;8.18;;;22.80;44.10;;;;;;5071752;28;20044;-42
2021/03/12 02:23:23;;;;;;;16.48;8.35;;;22.80;44.10;;;;;;5072006;28;20500;-43
2021/03/12 02:25:58;;;;;;;16.98;8.85;;;22.80;44.10;;;;;;5072325;28;20405;-42
2021/03/12 02:28:27;;;;;;;18.45;8.65;;;22.80;44.10;;;;;;5071846;28;20060;-42
2021/03/12 02:30:57;;;;;;;16.17;8.50;;;22.80;44.10;;;;;;5069821;28;20047;-42
2021/03/12 02:33:28;;;;;;;14.23;7.85;;;22.80;44.10;;;;;;5070857;28;20044;-42
2021/03/12 02:35:56;;;;;;;19.45;8.63;;;22.80;44.10;;;;;;5071932;28;20126;-42
2021/03/12 02:38:25;;;;;;;17.50;8.13;;;22.80;44.10;;;;;;5070441;28;20049;-42
2021/03/12 02:40:54;;;;;;;16.00;8.00;;;22.80;44.10;;;;;;5070712;28;20045;-42
2021/03/12 02:43:33;;;;;;;16.35;8.32;;;22.80;44.10;;;;;;5071105;28;20098;-42
2021/03/12 02:46:01;;;;;;;17.85;8.50;;;22.80;44.10;;;;;;5071644;28;20040;-42
2021/03/12 02:48:29;;;;;;;19.70;8.80;;;22.80;44.10;;;;;;5070196;28;20047;-43
2021/03/12 02:50:56;;;;;;;15.18;8.32;;;22.80;44.10;;;;;;5071357;28;20047;-42
2021/03/12 02:53:24;;;;;;;16.17;8.30;;;22.80;44.10;;;;;;5071794;28;20040;-42
2021/03/12 02:55:54;;;;;;;18.83;8.68;;;22.80;44.10;;;;;;5072089;28;20124;-42
2021/03/12 02:58:22;;;;;;;16.05;8.35;;;22.80;44.20;;;;;;5070461;28;20393;-44
2021/03/12 03:00:49;;;;;;;18.67;8.30;;;22.80;44.10;;;;;;5070137;28;20496;-42
2021/03/12 03:03:17;;;;;;;15.02;7.50;;;22.80;44.40;;;;;;5070876;28;20059;-42
2021/03/12 03:05:45;;;;;;;16.38;8.32;;;22.80;44.10;;;;;;5071546;28;20426;-43
2021/03/12 03:08:13;;;;;;;14.18;8.10;;;22.80;44.10;;;;;;5071618;28;20053;-43
2021/03/12 03:10:41;;;;;;;13.45;7.55;;;22.80;44.10;;;;;;5068920;28;20053;-43
2021/03/12 03:13:10;;;;;;;16.77;8.55;;;22.80;44.10;;;;;;5069931;28;20052;-43
2021/03/12 03:15:38;;;;;;;14.07;7.95;;;22.80;44.10;;;;;;5070251;28;20048;-43
2021/03/12 03:18:06;;;;;;;15.27;7.88;;;22.80;44.10;;;;;;5070189;28;20044;-42
2021/03/12 03:20:33;;;;;;;18.45;8.13;;;22.80;44.10;;;;;;5071079;28;20055;-42
2021/03/12 03:23:01;;;;;;;16.58;8.25;;;22.80;44.10;;;;;;5070431;28;20119;-42
2021/03/12 03:25:27;;;;;;;15.60;7.80;;;22.80;44.10;;;;;;5070055;28;20048;-45
2021/03/12 03:27:54;;;;;;;15.80;8.05;;;22.80;44.20;;;;;;5072658;28;20052;-42
2021/03/12 03:30:21;;;;;;;15.75;7.70;;;22.80;44.10;;;;;;5069420;28;20048;-42
2021/03/12 03:32:48;;;;;;;16.38;8.18;;;22.80;44.10;;;;;;5070585;28;20385;-42
2021/03/12 03:35:15;;;;;;;14.50;7.47;;;22.80;44.10;;;;;;5069854;28;20053;-43
2021/03/12 03:37:42;;;;;;;14.65;7.63;;;22.70;44.00;;;;;;5070033;28;20048;-43
2021/03/12 03:40:11;;;;;;;15.63;7.30;;;22.80;44.20;;;;;;5070327;28;20460;-43
2021/03/12 03:42:41;;;;;;;17.35;8.13;;;22.70;44.00;;;;;;5070086;28;20052;-44
2021/03/12 03:45:09;;;;;;;13.55;7.43;;;22.70;44.00;;;;;;5072465;28;20049;-42
2021/03/12 03:47:36;;;;;;;15.25;7.55;;;22.80;44.10;;;;;;5071054;28;20052;-43
2021/03/12 03:50:05;;;;;;;15.90;8.02;;;22.70;44.00;;;;;;5069941;28;20072;-42
2021/03/12 03:52:32;;;;;;;13.82;7.75;;;22.70;44.00;;;;;;5069729;28;20051;-42
2021/03/12 03:55:00;;;;;;;13.52;7.53;;;22.70;44.10;;;;;;5071133;28;20508;-43
2021/03/12 03:57:28;;;;;;;15.57;7.70;;;22.70;44.00;;;;;;5074797;28;20123;-42
2021/03/12 03:59:58;;;;;;;13.50;7.22;;;22.70;44.00;;;;;;5074919;28;20063;-43
2021/03/12 04:02:25;;;;;;;14.82;8.35;;;22.70;44.10;;;;;;5071577;28;20049;-42
2021/03/12 04:04:53;;;;;;;13.77;7.35;;;22.70;44.10;;;;;;5074356;28;20044;-43
2021/03/12 04:07:21;;;;;;;13.98;7.50;;;22.70;44.00;;;;;;5074661;28;20052;-42
2021/03/12 04:09:50;;;;;;;13.70;7.07;;;22.70;44.00;;;;;;5074100;28;20051;-43
2021/03/12 04:12:17;;;;;;;15.38;8.20;;;22.70;44.10;;;;;;5072458;28;20048;-43
2021/03/12 04:14:46;;;;;;;15.68;7.65;;;22.70;44.10;;;;;;5073532;28;20503;-42
2021/03/12 04:17:15;;;;;;;17.25;8.55;;;22.70;44.10;;;;;;5074458;28;20040;-42
2021/03/12 04:19:44;;;;;;;16.40;7.38;;;22.70;44.00;;;;;;5072973;28;20049;-42
2021/03/12 04:22:12;;;;;;;14.27;7.70;;;22.70;44.00;;;;;;5073355;28;20053;-42
2021/03/12 04:24:41;;;;;;;11.57;7.32;;;22.70;44.00;;;;;;5074301;28;20059;-42
2021/03/12 04:27:08;;;;;;;17.13;7.15;;;22.70;44.00;;;;;;5057264;28;20056;-42
2021/03/12 04:29:35;;;;;;;15.07;7.50;;;22.70;44.10;;;;;;5074145;28;20056;-42
2021/03/12 04:32:02;;;;;;;17.15;7.72;;;22.70;44.10;;;;;;5073989;28;20044;-43
2021/03/12 04:34:29;;;;;;;14.40;7.07;;;22.70;44.10;;;;;;5073261;28;20123;-43
2021/03/12 04:36:57;;;;;;;13.80;7.45;;;22.70;44.00;;;;;;5075160;28;20049;-43
2021/03/12 04:39:25;;;;;;;12.32;6.68;;;22.70;44.00;;;;;;5073942;28;20048;-43
2021/03/12 04:41:52;;;;;;;13.80;7.40;;;22.70;44.60;;;;;;5072553;28;20055;-42
2021/03/12 04:44:20;;;;;;;14.15;6.93;;;22.70;44.00;;;;;;5072821;28;20127;-43
2021/03/12 04:46:48;;;;;;;14.63;7.68;;;22.70;44.00;;;;;;5072877;28;20044;-42
2021/03/12 04:49:16;;;;;;;14.00;7.00;;;22.70;44.00;;;;;;5073486;28;20052;-42
2021/03/12 04:51:46;;;;;;;13.85;7.38;;;22.70;44.00;;;;;;5075532;28;20044;-43
2021/03/12 04:54:18;;;;;;;13.85;7.38;;;22.70;44.00;;;;;;5055214;28;20052;-42
2021/03/12 04:56:48;;;;;;;12.80;6.88;;;22.70;44.00;;;;;;5073633;28;20052;-43
2021/03/12 04:59:16;;;;;;;13.55;6.68;;;22.70;44.00;;;;;;5088748;28;20114;-42
2021/03/12 05:01:43;;;;;;;15.50;7.10;;;22.70;44.00;;;;;;5072170;28;20048;-42
2021/03/12 05:04:11;;;;;;;12.05;7.00;;;22.70;44.00;;;;;;5072514;28;20514;-42
2021/03/12 05:06:42;;;;;;;14.32;6.95;;;22.70;44.00;;;;;;5071725;28;20107;-42
2021/03/12 05:09:13;;;;;;;14.70;7.40;;;22.70;44.10;;;;;;5075004;28;20056;-42
2021/03/12 05:11:43;;;;;;;13.68;7.45;;;22.70;44.00;;;;;;5072587;28;20041;-42
2021/03/12 05:14:10;;;;;;;12.85;7.18;;;22.70;44.10;;;;;;5073453;28;20037;-48
2021/03/12 05:16:37;;;;;;;13.68;6.90;;;22.70;44.10;;;;;;5070716;28;20047;-43
2021/03/12 05:19:05;;;;;;;11.77;7.32;;;22.70;44.10;;;;;;5073546;28;20159;-42
2021/03/12 05:21:32;;;;;;;16.15;7.63;;;22.70;44.10;;;;;;5074675;28;20071;-43
2021/03/12 05:23:59;;;;;;;14.63;6.38;;;22.70;44.10;;;;;;5071275;28;20058;-42
2021/03/12 05:26:28;;;;;;;14.10;7.53;;;22.70;44.10;;;;;;5074061;28;20048;-41
2021/03/12 05:28:57;;;;;;;11.25;6.95;;;22.70;44.10;;;;;;5071389;28;20079;-42
2021/03/12 05:31:25;;;;;;;13.95;6.90;;;22.70;44.10;;;;;;5070139;28;20072;-42
2021/03/12 05:33:53;;;;;;;12.27;6.50;;;22.70;44.10;;;;;;5071536;28;20048;-42
2021/03/12 05:36:23;;;;;;;11.70;6.30;;;22.70;44.10;;;;;;5071502;28;20051;-44
2021/03/12 05:38:49;;;;;;;11.88;6.57;;;22.70;44.10;;;;;;5070873;28;20055;-42
2021/03/12 05:41:18;;;;;;;13.82;7.18;;;22.70;44.10;;;;;;5071314;28;20059;-42
2021/03/12 05:43:46;;;;;;;13.50;6.53;;;22.70;44.10;;;;;;5070514;28;20094;-42
2021/03/12 05:46:14;;;;;;;12.82;6.63;;;22.70;44.10;;;;;;5071306;28;20063;-42
2021/03/12 05:48:43;;;;;;;14.27;6.88;;;22.70;44.10;;;;;;5071235;28;20122;-42
2021/03/12 05:51:11;;;;;;;13.32;6.55;;;22.70;44.10;;;;;;5072798;28;20056;-42
2021/03/12 05:53:38;;;;;;;12.95;6.85;;;22.70;44.10;;;;;;5056357;28;20040;-42
2021/03/12 05:56:05;;;;;;;11.25;6.60;;;22.70;44.10;;;;;;5071778;28;20044;-43
2021/03/12 05:58:32;;;;;;;11.00;6.43;;;22.70;44.10;;;;;;5071520;28;20048;-42
2021/03/12 06:00:59;;;;;;;11.82;6.43;;;22.70;44.10;;;;;;5070629;28;20064;-43
2021/03/12 06:03:26;;;;;;;12.68;6.70;;;22.70;44.10;;;;;;5071755;28;20079;-43
2021/03/12 06:05:52;;;;;;;11.10;6.85;;;22.70;44.10;;;;;;5072174;28;20048;-42
2021/03/12 06:08:19;;;;;;;11.57;6.30;;;22.70;44.00;;;;;;5071961;28;20044;-42
2021/03/12 06:10:46;;;;;;;11.70;6.53;;;22.70;44.00;;;;;;5070896;28;20040;-42
2021/03/12 06:13:13;;;;;;;11.88;6.22;;;22.70;44.10;;;;;;5072144;28;20055;-44
2021/03/12 06:15:43;;;;;;;12.18;7.03;;;22.70;44.00;;;;;;5072262;28;20499;-43
2021/03/12 06:18:15;;;;;;;12.77;6.90;;;22.70;44.00;;;;;;5069532;28;20053;-42
2021/03/12 06:20:43;;;;;;;11.50;6.43;;;22.70;44.10;;;;;;5054491;28;20048;-43
2021/03/12 06:23:09;;;;;;;11.43;6.00;;;22.70;44.10;;;;;;5072145;28;20131;-42
2021/03/12 06:25:37;;;;;;;11.23;6.25;;;22.70;44.10;;;;;;5069584;28;20052;-43
2021/03/12 06:28:13;;;;;;;15.60;6.95;;;22.70;44.10;;;;;;5071796;28;20420;-43
2021/03/12 06:30:40;;;;;;;12.32;6.18;;;22.70;44.00;;;;;;5070845;28;20072;-43
2021/03/12 06:33:06;;;;;;;12.23;6.90;;;22.70;44.00;;;;;;5071938;28;20048;-46
2021/03/12 06:35:38;;;;;;;11.20;5.90;;;22.70;44.00;;;;;;5071842;28;20412;-42
2021/03/12 06:38:10;;;;;;;10.75;6.00;;;22.70;44.10;;;;;;5071733;28;20050;-42
2021/03/12 06:40:38;;;;;;;12.38;6.35;;;22.70;44.00;;;;;;5070710;28;20412;-42
2021/03/12 06:43:11;;;;;;;11.98;6.22;;;22.70;44.00;;;;;;5071671;28;20052;-42
2021/03/12 06:45:50;;;;;;;12.57;6.78;;;22.70;44.00;;;;;;5070250;28;20891;-42
2021/03/12 06:48:36;;;;;;;12.77;6.65;;;22.70;44.00;;;;;;5071338;28;20123;-42
2021/03/12 06:51:10;;;;;;;10.35;5.68;;;22.70;44.00;;;;;;5069795;28;20044;-44
2021/03/12 06:53:46;;;;;;;12.93;6.65;;;22.70;44.00;;;;;;5071200;28;20043;-43
2021/03/12 06:56:15;;;;;;;10.65;6.47;;;22.70;44.00;;;;;;5071151;28;20126;-43
2021/03/12 06:59:03;;;;;;;11.15;5.75;;;22.70;44.00;;;;;;5071566;28;20044;-44
2021/03/12 07:01:30;;;;;;;11.48;5.95;;;22.70;44.00;;;;;;5070178;28;20048;-44
2021/03/12 07:04:14;;;;;;;11.43;5.93;;;22.70;44.00;;;;;;5073269;28;20036;-42
2021/03/12 07:06:45;;;;;;;11.20;6.30;;;22.70;44.00;;;;;;5055529;28;20036;-43
2021/03/12 07:09:13;;;;;;;11.45;5.88;;;22.70;44.00;;;;;;5070573;28;20040;-44
2021/03/12 07:11:40;;;;;;;11.10;6.13;;;22.70;44.00;;;;;;5070567;28;20532;-43
2021/03/12 07:14:07;;;;;;;10.63;6.18;;;22.70;44.00;;;;;;5072584;28;20045;-42
2021/03/12 07:16:37;;;;;;;11.27;6.00;;;22.70;44.00;;;;;;5070275;28;20048;-43
2021/03/12 07:19:04;;;;;;;11.70;5.93;;;22.70;44.00;;;;;;5068979;28;20094;-42
2021/03/12 07:21:33;;;;;;;11.07;5.97;;;22.70;44.00;;;;;;5071195;28;20074;-43
2021/03/12 07:24:03;;;;;;;11.20;5.75;;;22.70;44.00;;;;;;5071302;28;20114;-43
2021/03/12 07:26:40;;;;;;;11.23;6.13;;;22.70;44.00;;;;;;5069793;28;20044;-43
2021/03/12 07:29:11;;;;;;;9.38;5.40;;;22.70;44.00;;;;;;5071275;28;20436;-43
2021/03/12 07:31:40;;;;;;;12.00;5.50;;;22.80;44.00;;;;;;5071697;28;20050;-48
2021/03/12 07:34:13;;;;;;;9.73;5.90;;;22.70;44.00;;;;;;5074057;28;20068;-42
2021/03/12 07:36:47;;;;;;;9.98;5.55;;;22.70;44.00;;;;;;5074832;28;20040;-42
2021/03/12 07:39:25;;;;;;;9.85;5.80;;;22.70;44.00;;;;;;5073923;28;20056;-46
2021/03/12 07:41:53;;;;;;;11.98;5.68;;;22.80;44.00;;;;;;5074865;28;20511;-43
2021/03/12 07:44:40;;;;;;;10.18;5.60;;;22.70;44.00;;;;;;5057689;28;20568;-44
2021/03/12 07:47:29;;;;;;;10.63;5.88;;;22.70;44.00;;;;;;5073451;28;20440;-42
2021/03/12 07:49:56;;;;;;;10.98;6.18;;;22.70;43.90;;;;;;5073593;28;21713;-42
2021/03/12 07:52:46;;;;;;;11.07;6.38;;;22.70;43.90;;;;;;5074876;28;20114;-43
2021/03/12 07:55:34;;;;;;;9.93;5.93;;;22.80;44.00;;;;;;5058228;28;20078;-48
2021/03/12 07:58:08;;;;;;;10.52;5.82;;;22.80;44.00;;;;;;5072353;28;20041;-42
2021/03/12 08:01:10;;;;;;;10.00;5.72;;;22.80;44.00;;;;;;5074191;28;20127;-43
2021/03/12 08:03:40;;;;;;;8.43;5.38;;;22.80;44.00;;;;;;5018132;28;20049;-42
2021/03/12 08:06:16;;;;;;;9.63;5.38;;;22.80;44.00;;;;;;5032406;28;20057;-42
2021/03/12 08:08:44;;;;;;;9.13;5.40;;;22.80;44.00;;;;;;5015495;28;20585;-42
2021/03/12 08:11:34;;;;;;;9.70;6.10;;;22.80;44.00;;;;;;5032397;28;20045;-43
2021/03/12 08:14:20;;;;;;;9.63;5.47;;;22.80;44.00;;;;;;5032258;28;20050;-43
2021/03/12 08:16:59;;;;;;;9.63;5.22;;;22.80;44.00;;;;;;5032938;28;20058;-44
2021/03/12 08:19:39;;;;;;;10.20;5.32;;;22.80;44.00;;;;;;5015208;28;20472;-43
2021/03/12 08:22:27;;;;;;;10.60;5.55;;;22.80;44.00;;;;;;5016113;28;20132;-42
2021/03/12 08:24:57;;;;;;;8.38;5.20;;;22.80;44.00;;;;;;5032027;28;20049;-42
2021/03/12 08:27:43;;;;;;;9.93;5.22;;;22.80;44.00;;;;;;5032273;28;20057;-43
2021/03/12 08:30:38;;;;;;;9.88;5.20;;;22.80;44.00;;;;;;5031275;28;20124;-43
2021/03/12 08:33:20;;;;;;;;;;;22.80;44.00;;;;;;5033352;28;20041;-42
2021/03/12 08:35:49;;;;;;;8.43;4.78;;;22.80;44.00;;;;;;5016765;28;20019;-43
2021/03/12 08:38:25;;;;;;;8.75;5.10;;;22.80;44.00;;;;;;5063731;28;20040;-48
2021/03/12 08:41:19;;;;;;;10.13;5.65;;;22.80;44.00;;;;;;5073429;28;20110;-42
2021/03/12 08:43:53;;;;;;;10.18;5.32;;;22.80;44.00;;;;;;5063309;28;20064;-42
2021/03/12 08:46:25;;;;;;;10.93;6.15;;;22.80;44.00;;;;;;5075266;28;20514;-43
2021/03/12 08:48:55;;;;;;;9.38;5.30;;;22.80;44.00;;;;;;5073110;28;20052;-43
2021/03/12 08:51:32;;;;;;;11.20;5.15;;;22.80;44.00;;;;;;5074198;28;20048;-43
2021/03/12 08:54:01;;;;;;;9.23;4.63;;;22.80;43.90;;;;;;5073006;28;20048;-42
2021/03/12 08:56:30;;;;;;;9.85;5.25;;;22.80;43.90;;;;;;5072369;28;20060;-43
2021/03/12 08:58:57;;;;;;;9.45;5.55;;;22.80;43.90;;;;;;5072295;28;20055;-43
2021/03/12 09:01:26;;;;;;;8.95;5.45;;;22.80;43.90;;;;;;5072869;28;20044;-42
2021/03/12 09:03:56;;;;;;;8.98;5.13;;;22.80;43.90;;;;;;5072112;28;20047;-42
2021/03/12 09:06:29;;;;;;;10.10;5.30;;;22.80;43.90;;;;;;5073412;28;20064;-44
2021/03/12 09:09:08;;;;;;;8.93;4.97;;;22.80;43.90;;;;;;5072365;28;20040;-42
2021/03/12 09:11:36;;;;;;;8.50;5.30;;;22.80;43.90;;;;;;5071861;28;20047;-44
2021/03/12 09:14:05;;;;;;;10.13;5.15;;;22.80;43.90;;;;;;5070758;28;20048;-42
2021/03/12 09:16:37;;;;;;;8.98;4.75;;;22.80;43.90;;;;;;5074696;28;20044;-42
2021/03/12 09:19:12;;;;;;;9.35;5.05;;;22.80;43.90;;;;;;5073084;28;20041;-43
2021/03/12 09:21:39;;;;;;;9.68;5.32;;;22.80;43.90;;;;;;5070789;28;20484;-42
2021/03/12 09:24:06;;;;;;;9.75;4.97;;;22.80;43.90;;;;;;5072774;28;20094;-45
2021/03/12 09:26:35;;;;;;;9.75;5.18;;;22.90;44.00;;;;;;5072218;28;20072;-43
2021/03/12 09:29:05;;;;;;;9.50;4.65;;;22.90;44.00;;;;;;5074168;28;20449;-42
2021/03/12 09:31:37;;;;;;;10.88;5.35;;;22.90;44.00;;;;;;5068647;28;20048;-43
2021/03/12 09:34:08;;;;;;;8.02;4.80;;;22.90;44.00;;;;;;5071611;28;20052;-42
2021/03/12 09:36:39;;;;;;;8.45;5.05;;;22.90;44.00;;;;;;5071443;28;20049;-44
2021/03/12 09:39:10;;;;;;;9.27;4.93;;;22.90;44.00;;;;;;5072670;28;20128;-42
2021/03/12 09:41:42;;;;;;;9.18;5.13;;;22.90;44.00;;;;;;5072277;28;20044;-43
2021/03/12 09:44:14;;;;;;;9.27;4.93;;;22.90;44.00;;;;;;5071246;28;20044;-44
2021/03/12 09:46:47;;;;;;;8.05;4.80;;;22.90;44.00;;;;;;5074419;28;20044;-43
2021/03/12 09:49:38;;;;;;;7.80;4.50;;;22.90;43.90;;;;;;5071344;28;20073;-42
2021/03/12 09:52:09;;;;;;;8.93;5.10;;;22.90;44.00;;;;;;5072269;28;20067;-43
2021/03/12 09:54:37;;;;;;;8.80;5.10;;;22.90;44.00;;;;;;5072304;28;20044;-42
2021/03/12 09:57:05;;;;;;;7.40;4.20;;;22.90;43.90;;;;;;5071207;28;20043;-47
2021/03/12 09:59:36;;;;;;;6.50;4.25;;;22.90;43.90;;;;;;5072080;28;20152;-43
2021/03/12 10:02:18;;;;;;;7.57;4.65;;;22.90;43.90;;;;;;5056929;28;20064;-44
2021/03/12 10:04:54;;;;;;;7.75;4.95;;;22.90;44.50;;;;;;5053721;28;20186;-47
2021/03/12 10:07:40;;;;;;;7.82;4.63;;;22.90;43.90;;;;;;5055301;28;20523;-42
2021/03/12 10:10:25;;;;;;;9.68;4.93;;;22.90;43.90;;;;;;5072805;28;20079;-44
2021/03/12 10:12:59;;;;;;;7.03;4.47;;;23.00;44.00;;;;;;5055846;28;20110;-42
2021/03/12 10:15:36;;;;;;;8.23;4.95;;;23.00;43.90;;;;;;5072480;28;20202;-42
2021/03/12 10:18:06;;;;;;;8.10;4.78;;;23.00;43.90;;;;;;5072473;28;20044;-43
2021/03/12 10:20:35;;;;;;;9.10;4.72;;;23.00;43.90;;;;;;5071427;28;20056;-43
2021/03/12 10:23:08;;;;;;;7.75;4.22;;;23.00;43.90;;;;;;5071935;28;20543;-42
2021/03/12 10:25:52;;;;;;;7.47;4.53;;;23.00;43.90;;;;;;5070459;28;20048;-42
2021/03/12 10:28:20;;;;;;;6.85;4.40;;;23.00;43.90;;;;;;5070335;28;20053;-46
2021/03/12 10:30:57;;;;;;;7.03;4.25;;;23.00;43.80;;;;;;5068954;28;20040;-42
2021/03/12 10:33:30;;;;;;;8.30;4.82;;;23.00;43.80;;;;;;5070387;28;20492;-43
2021/03/12 10:35:59;;;;;;;8.53;5.00;;;23.00;43.80;;;;;;5070704;28;20079;-43
2021/03/12 10:38:34;;;;;;;7.85;4.72;;;23.00;43.80;;;;;;5070180;28;20287;-43
2021/03/12 10:41:05;;;;;;;8.82;4.47;;;23.00;43.80;;;;;;5071514;28;20135;-42
2021/03/12 10:43:34;;;;;;;6.75;3.60;;;23.00;43.80;;;;;;5071736;28;20048;-43
2021/03/12 10:46:09;;;;;;;7.50;4.22;;;23.00;43.80;;;;;;5071696;28;20066;-43
2021/03/12 10:48:43;;;;;;;8.52;3.97;;;23.00;43.80;;;;;;5071663;28;20539;-43
2021/03/12 10:51:12;;;;;;;7.80;4.07;;;23.00;43.80;;;;;;5071489;28;20055;-45
2021/03/12 10:53:47;;;;;;;7.28;4.45;;;23.00;43.80;;;;;;5070636;28;20041;-43
2021/03/12 10:56:16;;;;;;;6.80;4.13;;;23.00;43.80;;;;;;5069194;28;20098;-44
2021/03/12 10:58:43;;;;;;;7.85;4.35;;;23.00;43.80;;;;;;5071776;28;20048;-42
2021/03/12 11:01:13;;;;;;;6.63;4.07;;;23.00;43.70;;;;;;5070353;28;20048;-46
2021/03/12 11:03:42;;;;;;;8.00;4.30;;;23.00;43.70;;;;;;5071719;28;20102;-42
2021/03/12 11:06:11;;;;;;;7.15;4.07;;;23.10;43.80;;;;;;5071451;28;20079;-44
2021/03/12 11:08:38;;;;;;;7.78;4.25;;;23.00;43.70;;;;;;5071761;28;20057;-46
2021/03/12 11:11:07;;;;;;;6.57;3.85;;;23.10;43.80;;;;;;5071220;28;20492;-45
2021/03/12 11:13:36;;;;;;;6.60;3.97;;;23.10;43.80;;;;;;5072499;28;20048;-46
2021/03/12 11:16:04;;;;;;;7.70;4.05;;;23.10;43.80;;;;;;5071276;28;20043;-42
2021/03/12 11:18:31;;;;;;;7.18;4.53;;;23.10;43.70;;;;;;5069147;28;20056;-46
2021/03/12 11:21:00;;;;;;;6.45;3.78;;;23.10;43.70;;;;;;5071000;28;20520;-42
2021/03/12 11:23:27;;;;;;;6.93;4.07;;;23.10;43.70;;;;;;5071031;28;20045;-43
2021/03/12 11:25:55;;;;;;;6.32;3.80;;;23.10;43.70;;;;;;5070353;28;20045;-44
2021/03/12 11:28:22;;;;;;;6.45;3.80;;;23.10;43.70;;;;;;5070662;28;20060;-42
2021/03/12 11:30:49;;;;;;;7.28;4.10;;;23.10;43.70;;;;;;5069872;28;20047;-42
2021/03/12 11:33:15;;;;;;;8.00;4.20;;;23.10;43.70;;;;;;5069092;28;20051;-42
2021/03/12 11:35:42;;;;;;;8.00;4.10;;;23.10;43.70;;;;;;5069414;28;20558;-42
2021/03/12 11:38:10;;;;;;;7.32;4.00;;;23.10;43.70;;;;;;5071133;28;20044;-43
2021/03/12 11:40:38;;;;;;;6.65;3.83;;;23.10;43.70;;;;;;5068509;28;20461;-42
2021/03/12 11:43:06;;;;;;;6.75;3.80;;;23.10;43.70;;;;;;5069739;28;20055;-42
2021/03/12 11:45:34;;;;;;;5.82;3.75;;;23.10;43.70;;;;;;5069693;28;20055;-42
2021/03/12 11:48:02;;;;;;;5.32;3.50;;;23.10;43.70;;;;;;5071438;28;20052;-43
2021/03/12 11:50:37;;;;;;;7.55;4.20;;;23.10;43.70;;;;;;5069481;28;20040;-43
2021/03/12 11:53:05;;;;;;;6.00;3.58;;;23.10;43.70;;;;;;5070250;28;20045;-42
2021/03/12 11:55:32;;;;;;;7.55;4.47;;;23.10;43.70;;;;;;5069628;28;20044;-44
2021/03/12 11:58:00;;;;;;;6.53;3.83;;;23.10;43.70;;;;;;5069176;28;20476;-42
2021/03/12 12:00:29;;;;;;;6.50;3.60;;;23.10;43.70;;;;;;5069159;28;20048;-42
2021/03/12 12:02:56;;;;;;;7.35;3.75;;;23.10;43.70;;;;;;5069797;28;20048;-43
2021/03/12 12:05:23;;;;;;;7.28;4.30;;;23.10;43.70;;;;;;5071004;28;20056;-43
2021/03/12 12:07:51;;;;;;;6.22;3.65;;;23.10;43.70;;;;;;5069873;28;20052;-43
2021/03/12 12:10:18;;;;;;;7.13;3.95;;;23.10;43.70;;;;;;5069485;28;20051;-44
2021/03/12 12:12:47;;;;;;;8.18;4.25;;;23.10;43.70;;;;;;5069910;28;20072;-46
2021/03/12 12:15:18;;;;;;;6.30;3.05;;;23.10;43.70;;;;;;5070897;28;20496;-42
2021/03/12 12:17:45;;;;;;;8.15;3.95;;;23.10;43.70;;;;;;5070997;28;20124;-45
2021/03/12 12:20:17;;;;;;;6.03;3.75;;;23.10;43.70;;;;;;5072965;28;20052;-43
2021/03/12 12:22:44;;;;;;;5.82;3.60;;;23.20;43.80;;;;;;5073988;28;20075;-44
2021/03/12 12:25:14;;;;;;;5.57;3.25;;;23.10;43.70;;;;;;5074609;28;20049;-42
2021/03/12 12:27:41;;;;;;;6.63;3.50;;;23.10;43.70;;;;;;5072849;28;20063;-43
2021/03/12 12:30:09;;;;;;;5.78;3.50;;;23.10;43.70;;;;;;5073205;28;20080;-44
2021/03/12 12:32:37;;;;;;;5.93;3.75;;;23.10;43.70;;;;;;5071464;28;20052;-42
2021/03/12 12:35:06;;;;;;;6.82;3.75;;;23.10;43.70;;;;;;5073227;28;20082;-43
2021/03/12 12:37:34;;;;;;;5.38;3.22;;;23.10;43.70;;;;;;5073175;28;20440;-43
2021/03/12 12:40:04;;;;;;;6.47;3.63;;;23.10;43.70;;;;;;5072896;28;20106;-42
2021/03/12 12:42:31;;;;;;;5.90;3.65;;;23.10;43.70;;;;;;5072563;28;20048;-42
2021/03/12 12:44:59;;;;;;;5.95;3.53;;;23.20;43.80;;;;;;5073989;28;20447;-43
2021/03/12 12:47:25;;;;;;;6.00;3.50;;;23.10;43.70;;;;;;5075059;28;20488;-45
2021/03/12 12:49:52;;;;;;;6.40;3.65;;;23.20;43.80;;;;;;5075046;28;20049;-45
2021/03/12 12:52:20;;;;;;;6.47;4.05;;;23.10;43.80;;;;;;5073709;28;20098;-44
2021/03/12 12:54:46;;;;;;;6.65;3.67;;;23.10;43.70;;;;;;5073184;28;20046;-44
2021/03/12 12:57:16;;;;;;;6.25;3.80;;;23.10;43.70;;;;;;5085803;28;20053;-43